createdAt,value
2023-03-06T00:03:46.096Z,984.00
2023-03-06T00:08:45.838Z,977.00
2023-03-06T00:13:45.691Z,976.00
2023-03-06T00:18:45.497Z,967.00
2023-03-06T00:23:45.333Z,961.00
2023-03-06T00:28:45.177Z,960.00
2023-03-06T00:33:45.036Z,961.00
2023-03-06T00:38:44.845Z,947.00
2023-03-06T00:43:44.676Z,949.00
2023-03-06T00:48:44.542Z,945.00
2023-03-06T00:53:44.338Z,939.00
2023-03-06T00:58:44.147Z,939.00
2023-03-06T01:03:44.003Z,942.00
2023-03-06T01:08:43.825Z,928.00
2023-03-06T01:13:43.677Z,926.00
2023-03-06T01:18:43.498Z,928.00
2023-03-06T01:23:43.355Z,931.00
2023-03-06T01:28:43.210Z,930.00
2023-03-06T01:33:43.076Z,923.00
2023-03-06T01:38:42.949Z,920.00
2023-03-06T01:43:42.834Z,912.00
2023-03-06T01:48:42.710Z,912.00
2023-03-06T01:53:42.588Z,906.00
2023-03-06T01:58:42.453Z,905.00
2023-03-06T02:03:42.326Z,901.00
2023-03-06T02:08:42.192Z,897.00
2023-03-06T02:13:42.080Z,895.00
2023-03-06T02:18:41.952Z,900.00
2023-03-06T02:23:41.850Z,898.00
2023-03-06T02:28:41.781Z,896.00
2023-03-06T02:33:41.676Z,892.00
2023-03-06T02:38:41.602Z,880.00
2023-03-06T02:43:41.512Z,879.00
2023-03-06T02:48:41.429Z,884.00
2023-03-06T02:53:41.350Z,881.00
2023-03-06T02:58:41.261Z,879.00
2023-03-06T03:03:41.183Z,872.00
2023-03-06T03:08:41.105Z,870.00
2023-03-06T03:13:41.009Z,870.00
2023-03-06T03:18:40.909Z,872.00
2023-03-06T03:23:46.839Z,859.00
2023-03-06T03:28:40.773Z,866.00
2023-03-06T03:33:40.719Z,865.00
2023-03-06T03:38:40.634Z,857.00
2023-03-06T03:43:40.567Z,854.00
2023-03-06T03:48:40.488Z,851.00
2023-03-06T03:53:40.447Z,848.00
2023-03-06T03:58:40.384Z,848.00
2023-03-06T04:03:40.336Z,853.00
2023-03-06T04:08:40.261Z,848.00
2023-03-06T04:13:40.214Z,847.00
2023-03-06T04:18:40.163Z,848.00
2023-03-06T04:23:40.115Z,843.00
2023-03-06T04:28:40.039Z,834.00
2023-03-06T04:33:40.002Z,839.00
2023-03-06T04:38:39.974Z,820.00
2023-03-06T04:43:39.872Z,832.00
2023-03-06T04:48:39.785Z,836.00
2023-03-06T04:53:39.710Z,833.00
2023-03-06T04:58:39.624Z,819.00
2023-03-06T05:03:39.549Z,815.00
2023-03-06T05:08:39.409Z,836.00
2023-03-06T05:13:39.296Z,788.00
2023-03-06T05:18:39.205Z,820.00
2023-03-06T05:23:39.067Z,816.00
2023-03-06T05:28:39.025Z,810.00
2023-03-06T05:33:38.789Z,817.00
2023-03-06T05:38:38.662Z,802.00
2023-03-06T05:43:38.543Z,804.00
2023-03-06T05:48:38.400Z,808.00
2023-03-06T05:53:38.266Z,813.00
2023-03-06T05:58:38.098Z,802.00
2023-03-06T06:03:38.067Z,803.00
2023-03-06T06:08:37.846Z,811.00
2023-03-06T06:13:37.685Z,806.00
2023-03-06T06:18:39.821Z,820.00
2023-03-06T06:23:37.401Z,799.00
2023-03-06T06:28:37.238Z,797.00
2023-03-06T06:33:37.080Z,800.00
2023-03-06T06:38:36.926Z,798.00
2023-03-06T06:43:36.785Z,798.00
2023-03-06T06:48:36.644Z,1020.00
2023-03-06T06:53:36.475Z,1237.00
2023-03-06T06:58:36.261Z,1414.00
2023-03-06T07:03:36.092Z,1576.00
2023-03-06T07:08:35.855Z,1640.00
2023-03-06T07:13:35.651Z,1743.00
2023-03-06T07:18:35.425Z,1605.00
2023-03-06T07:23:35.195Z,1380.00
2023-03-06T07:28:49.842Z,1336.00
2023-03-06T07:33:34.779Z,1306.00
2023-03-06T07:38:34.540Z,1344.00
2023-03-06T07:43:34.320Z,1379.00
